sensor_id;sensor_type;location;lat;lon;timestamp;temperature;humidity
24814;DHT22;12904;50.088;11.414;2023-12-22T00:01:06;4.60;99.90
24814;DHT22;12904;50.088;11.414;2023-12-22T00:03:32;4.60;99.90
24814;DHT22;12904;50.088;11.414;2023-12-22T00:05:58;4.60;99.90
24814;DHT22;12904;50.088;11.414;2023-12-22T00:08:23;4.60;99.90
24814;DHT22;12904;50.088;11.414;2023-12-22T00:10:49;4.60;99.90
24814;DHT22;12904;50.088;11.414;2023-12-22T00:13:15;4.60;99.90
24814;DHT22;12904;50.088;11.414;2023-12-22T00:15:41;4.60;99.90
24814;DHT22;12904;50.088;11.414;2023-12-22T00:18:10;4.60;99.90
24814;DHT22;12904;50.088;11.414;2023-12-22T00:20:36;4.60;99.90
24814;DHT22;12904;50.088;11.414;2023-12-22T00:23:02;4.40;99.90
24814;DHT22;12904;50.088;11.414;2023-12-22T00:25:27;4.40;99.90
24814;DHT22;12904;50.088;11.414;2023-12-22T00:27:53;4.40;99.90
24814;DHT22;12904;50.088;11.414;2023-12-22T00:30:19;4.40;99.90
24814;DHT22;12904;50.088;11.414;2023-12-22T00:32:44;4.30;99.90
24814;DHT22;12904;50.088;11.414;2023-12-22T00:35:10;4.40;99.90
24814;DHT22;12904;50.088;11.414;2023-12-22T00:37:35;4.40;99.90
24814;DHT22;12904;50.088;11.414;2023-12-22T00:40:01;4.40;99.90
24814;DHT22;12904;50.088;11.414;2023-12-22T00:42:29;4.40;99.90
24814;DHT22;12904;50.088;11.414;2023-12-22T00:44:55;4.30;99.90
24814;DHT22;12904;50.088;11.414;2023-12-22T00:47:20;4.30;99.90
24814;DHT22;12904;50.088;11.414;2023-12-22T00:49:46;4.30;99.90
24814;DHT22;12904;50.088;11.414;2023-12-22T00:52:12;4.30;99.90
24814;DHT22;12904;50.088;11.414;2023-12-22T00:54:37;4.30;99.90
24814;DHT22;12904;50.088;11.414;2023-12-22T00:57:03;4.30;99.90
24814;DHT22;12904;50.088;11.414;2023-12-22T00:59:29;4.30;99.90
24814;DHT22;12904;50.088;11.414;2023-12-22T01:01:55;4.30;99.90
24814;DHT22;12904;50.088;11.414;2023-12-22T01:04:21;4.20;99.90
24814;DHT22;12904;50.088;11.414;2023-12-22T01:06:46;4.20;99.90
24814;DHT22;12904;50.088;11.414;2023-12-22T01:09:12;4.10;99.90
24814;DHT22;12904;50.088;11.414;2023-12-22T01:11:37;4.10;99.90
24814;DHT22;12904;50.088;11.414;2023-12-22T01:14:03;4.00;99.90
24814;DHT22;12904;50.088;11.414;2023-12-22T01:16:29;4.00;99.90
24814;DHT22;12904;50.088;11.414;2023-12-22T01:18:54;4.00;99.90
24814;DHT22;12904;50.088;11.414;2023-12-22T01:21:20;4.10;99.90
24814;DHT22;12904;50.088;11.414;2023-12-22T01:23:45;4.10;99.90
24814;DHT22;12904;50.088;11.414;2023-12-22T01:26:11;4.10;99.90
24814;DHT22;12904;50.088;11.414;2023-12-22T01:28:36;4.10;99.90
24814;DHT22;12904;50.088;11.414;2023-12-22T01:31:02;4.10;99.90
24814;DHT22;12904;50.088;11.414;2023-12-22T01:33:28;4.10;99.90
24814;DHT22;12904;50.088;11.414;2023-12-22T01:35:55;4.20;99.90
24814;DHT22;12904;50.088;11.414;2023-12-22T01:38:20;4.20;99.90
24814;DHT22;12904;50.088;11.414;2023-12-22T01:40:46;4.20;99.90
24814;DHT22;12904;50.088;11.414;2023-12-22T01:43:12;4.30;99.90
24814;DHT22;12904;50.088;11.414;2023-12-22T01:45:38;4.30;99.90
24814;DHT22;12904;50.088;11.414;2023-12-22T01:48:04;4.40;99.90
24814;DHT22;12904;50.088;11.414;2023-12-22T01:50:30;4.40;99.90
24814;DHT22;12904;50.088;11.414;2023-12-22T01:52:56;4.40;99.90
24814;DHT22;12904;50.088;11.414;2023-12-22T01:55:22;4.40;99.90
24814;DHT22;12904;50.088;11.414;2023-12-22T01:57:49;4.50;99.90
24814;DHT22;12904;50.088;11.414;2023-12-22T02:00:14;4.50;99.90
24814;DHT22;12904;50.088;11.414;2023-12-22T02:02:41;4.50;99.90
24814;DHT22;12904;50.088;11.414;2023-12-22T02:05:10;4.50;99.90
24814;DHT22;12904;50.088;11.414;2023-12-22T02:07:38;4.50;99.90
24814;DHT22;12904;50.088;11.414;2023-12-22T02:10:09;4.50;99.90
24814;DHT22;12904;50.088;11.414;2023-12-22T02:12:36;4.50;99.90
24814;DHT22;12904;50.088;11.414;2023-12-22T02:15:03;4.50;99.90
24814;DHT22;12904;50.088;11.414;2023-12-22T02:20:11;4.60;99.90
24814;DHT22;12904;50.088;11.414;2023-12-22T02:22:37;4.50;99.90
24814;DHT22;12904;50.088;11.414;2023-12-22T02:25:02;4.50;99.90
24814;DHT22;12904;50.088;11.414;2023-12-22T02:27:33;4.40;99.90
24814;DHT22;12904;50.088;11.414;2023-12-22T02:30:13;4.40;99.90
24814;DHT22;12904;50.088;11.414;2023-12-22T02:32:42;4.40;99.90
24814;DHT22;12904;50.088;11.414;2023-12-22T02:35:11;4.30;99.90
24814;DHT22;12904;50.088;11.414;2023-12-22T02:37:39;4.30;99.90
24814;DHT22;12904;50.088;11.414;2023-12-22T02:40:07;4.40;99.90
24814;DHT22;12904;50.088;11.414;2023-12-22T02:42:35;4.40;99.90
24814;DHT22;12904;50.088;11.414;2023-12-22T02:45:02;4.40;99.90
24814;DHT22;12904;50.088;11.414;2023-12-22T02:47:28;4.40;99.90
24814;DHT22;12904;50.088;11.414;2023-12-22T02:49:54;4.40;99.90
24814;DHT22;12904;50.088;11.414;2023-12-22T02:52:20;4.40;99.90
24814;DHT22;12904;50.088;11.414;2023-12-22T02:54:45;4.40;99.90
24814;DHT22;12904;50.088;11.414;2023-12-22T02:57:12;4.40;99.90
24814;DHT22;12904;50.088;11.414;2023-12-22T02:59:38;4.40;99.90
24814;DHT22;12904;50.088;11.414;2023-12-22T03:02:04;4.40;99.90
24814;DHT22;12904;50.088;11.414;2023-12-22T03:04:30;4.40;99.90
24814;DHT22;12904;50.088;11.414;2023-12-22T03:06:55;4.40;99.90
24814;DHT22;12904;50.088;11.414;2023-12-22T03:09:21;4.40;99.90
24814;DHT22;12904;50.088;11.414;2023-12-22T03:11:48;4.40;99.90
24814;DHT22;12904;50.088;11.414;2023-12-22T03:14:13;4.40;99.90
24814;DHT22;12904;50.088;11.414;2023-12-22T03:16:40;4.50;99.90
24814;DHT22;12904;50.088;11.414;2023-12-22T03:19:07;4.40;99.90
24814;DHT22;12904;50.088;11.414;2023-12-22T03:21:32;4.40;99.90
24814;DHT22;12904;50.088;11.414;2023-12-22T03:23:58;4.50;99.90
24814;DHT22;12904;50.088;11.414;2023-12-22T03:26:26;4.50;99.90
24814;DHT22;12904;50.088;11.414;2023-12-22T03:28:52;4.40;99.90
24814;DHT22;12904;50.088;11.414;2023-12-22T03:31:17;4.40;99.90
24814;DHT22;12904;50.088;11.414;2023-12-22T03:33:43;4.40;99.90
24814;DHT22;12904;50.088;11.414;2023-12-22T03:36:09;4.30;99.90
24814;DHT22;12904;50.088;11.414;2023-12-22T03:38:34;4.30;99.90
24814;DHT22;12904;50.088;11.414;2023-12-22T03:41:00;4.30;99.90
24814;DHT22;12904;50.088;11.414;2023-12-22T03:43:26;4.30;99.90
24814;DHT22;12904;50.088;11.414;2023-12-22T03:45:51;4.30;99.90
24814;DHT22;12904;50.088;11.414;2023-12-22T03:48:17;4.30;99.90
24814;DHT22;12904;50.088;11.414;2023-12-22T03:50:42;4.30;99.90
24814;DHT22;12904;50.088;11.414;2023-12-22T03:53:09;4.30;99.90
24814;DHT22;12904;50.088;11.414;2023-12-22T03:55:34;4.30;99.90
24814;DHT22;12904;50.088;11.414;2023-12-22T03:58:00;4.30;99.90
24814;DHT22;12904;50.088;11.414;2023-12-22T04:00:26;4.30;99.90
24814;DHT22;12904;50.088;11.414;2023-12-22T04:02:52;4.30;99.90
24814;DHT22;12904;50.088;11.414;2023-12-22T04:05:17;4.30;99.90
24814;DHT22;12904;50.088;11.414;2023-12-22T04:07:43;4.40;99.90
24814;DHT22;12904;50.088;11.414;2023-12-22T04:10:09;4.30;99.90
24814;DHT22;12904;50.088;11.414;2023-12-22T04:12:34;4.30;99.90
24814;DHT22;12904;50.088;11.414;2023-12-22T04:15:00;4.30;99.90
24814;DHT22;12904;50.088;11.414;2023-12-22T04:17:26;4.30;99.90
24814;DHT22;12904;50.088;11.414;2023-12-22T04:19:51;4.20;99.90
24814;DHT22;12904;50.088;11.414;2023-12-22T04:22:18;4.20;99.90
24814;DHT22;12904;50.088;11.414;2023-12-22T04:24:43;4.20;99.90
24814;DHT22;12904;50.088;11.414;2023-12-22T04:27:09;4.20;99.90
24814;DHT22;12904;50.088;11.414;2023-12-22T04:29:34;4.20;99.90
24814;DHT22;12904;50.088;11.414;2023-12-22T04:32:00;4.20;99.90
24814;DHT22;12904;50.088;11.414;2023-12-22T04:34:26;4.20;99.90
24814;DHT22;12904;50.088;11.414;2023-12-22T04:36:51;4.20;99.90
24814;DHT22;12904;50.088;11.414;2023-12-22T04:39:17;4.20;99.90
24814;DHT22;12904;50.088;11.414;2023-12-22T04:41:42;4.20;99.90
24814;DHT22;12904;50.088;11.414;2023-12-22T04:44:08;4.30;99.90
24814;DHT22;12904;50.088;11.414;2023-12-22T04:46:34;4.30;99.90
24814;DHT22;12904;50.088;11.414;2023-12-22T04:48:59;4.30;99.90
24814;DHT22;12904;50.088;11.414;2023-12-22T04:51:25;4.30;99.90
24814;DHT22;12904;50.088;11.414;2023-12-22T04:53:51;4.30;99.90
24814;DHT22;12904;50.088;11.414;2023-12-22T04:56:16;4.30;99.90
24814;DHT22;12904;50.088;11.414;2023-12-22T04:58:42;4.30;99.90
24814;DHT22;12904;50.088;11.414;2023-12-22T05:01:08;4.30;99.90
24814;DHT22;12904;50.088;11.414;2023-12-22T05:03:33;4.30;99.90
24814;DHT22;12904;50.088;11.414;2023-12-22T05:05:59;4.30;99.90
24814;DHT22;12904;50.088;11.414;2023-12-22T05:08:25;4.30;99.90
24814;DHT22;12904;50.088;11.414;2023-12-22T05:10:50;4.20;99.90
24814;DHT22;12904;50.088;11.414;2023-12-22T05:13:16;4.20;99.90
24814;DHT22;12904;50.088;11.414;2023-12-22T05:15:41;4.30;99.90
24814;DHT22;12904;50.088;11.414;2023-12-22T05:18:08;4.30;99.90
24814;DHT22;12904;50.088;11.414;2023-12-22T05:20:34;4.30;99.90
24814;DHT22;12904;50.088;11.414;2023-12-22T05:23:00;4.30;99.90
24814;DHT22;12904;50.088;11.414;2023-12-22T05:25:25;4.30;99.90
24814;DHT22;12904;50.088;11.414;2023-12-22T05:27:51;4.30;99.90
24814;DHT22;12904;50.088;11.414;2023-12-22T05:30:17;4.30;99.90
24814;DHT22;12904;50.088;11.414;2023-12-22T05:32:43;4.30;99.90
24814;DHT22;12904;50.088;11.414;2023-12-22T05:35:10;4.30;99.90
24814;DHT22;12904;50.088;11.414;2023-12-22T05:37:36;4.30;99.90
24814;DHT22;12904;50.088;11.414;2023-12-22T05:40:02;4.30;99.90
24814;DHT22;12904;50.088;11.414;2023-12-22T05:42:27;4.30;99.90
24814;DHT22;12904;50.088;11.414;2023-12-22T05:44:53;4.30;99.90
24814;DHT22;12904;50.088;11.414;2023-12-22T05:47:19;4.30;99.90
24814;DHT22;12904;50.088;11.414;2023-12-22T05:49:45;4.20;99.90
24814;DHT22;12904;50.088;11.414;2023-12-22T05:52:12;4.20;99.90
24814;DHT22;12904;50.088;11.414;2023-12-22T05:54:38;4.10;99.90
24814;DHT22;12904;50.088;11.414;2023-12-22T05:57:04;4.10;99.90
24814;DHT22;12904;50.088;11.414;2023-12-22T05:59:32;4.10;99.90
24814;DHT22;12904;50.088;11.414;2023-12-22T06:02:01;4.10;99.90
24814;DHT22;12904;50.088;11.414;2023-12-22T06:04:28;4.00;99.90
24814;DHT22;12904;50.088;11.414;2023-12-22T06:06:53;4.00;99.90
24814;DHT22;12904;50.088;11.414;2023-12-22T06:09:19;4.00;99.90
24814;DHT22;12904;50.088;11.414;2023-12-22T06:11:47;4.00;99.90
24814;DHT22;12904;50.088;11.414;2023-12-22T06:14:13;4.00;99.90
24814;DHT22;12904;50.088;11.414;2023-12-22T06:16:39;4.00;99.90
24814;DHT22;12904;50.088;11.414;2023-12-22T06:19:05;4.00;99.90
24814;DHT22;12904;50.088;11.414;2023-12-22T06:21:30;4.00;99.90
24814;DHT22;12904;50.088;11.414;2023-12-22T06:23:56;4.00;99.90
24814;DHT22;12904;50.088;11.414;2023-12-22T06:26:22;4.00;99.90
24814;DHT22;12904;50.088;11.414;2023-12-22T06:28:47;4.00;99.90
24814;DHT22;12904;50.088;11.414;2023-12-22T06:31:17;4.00;99.90
24814;DHT22;12904;50.088;11.414;2023-12-22T06:33:47;4.00;99.90
24814;DHT22;12904;50.088;11.414;2023-12-22T06:38:44;4.00;99.90
24814;DHT22;12904;50.088;11.414;2023-12-22T06:41:21;4.00;99.90
24814;DHT22;12904;50.088;11.414;2023-12-22T06:43:48;4.00;99.90
24814;DHT22;12904;50.088;11.414;2023-12-22T06:46:17;4.00;99.90
24814;DHT22;12904;50.088;11.414;2023-12-22T06:48:43;4.00;99.90
24814;DHT22;12904;50.088;11.414;2023-12-22T06:53:45;3.90;99.90
24814;DHT22;12904;50.088;11.414;2023-12-22T06:56:27;3.90;99.90
24814;DHT22;12904;50.088;11.414;2023-12-22T06:58:54;3.90;99.90
24814;DHT22;12904;50.088;11.414;2023-12-22T07:01:23;3.90;99.90
24814;DHT22;12904;50.088;11.414;2023-12-22T07:03:50;4.00;99.90
24814;DHT22;12904;50.088;11.414;2023-12-22T07:06:16;4.00;99.90
24814;DHT22;12904;50.088;11.414;2023-12-22T07:08:43;4.00;99.90
24814;DHT22;12904;50.088;11.414;2023-12-22T07:11:09;4.00;99.90
24814;DHT22;12904;50.088;11.414;2023-12-22T07:13:35;4.00;99.90
24814;DHT22;12904;50.088;11.414;2023-12-22T07:16:01;4.00;99.90
24814;DHT22;12904;50.088;11.414;2023-12-22T07:18:28;4.00;99.90
24814;DHT22;12904;50.088;11.414;2023-12-22T07:20:57;4.10;99.90
24814;DHT22;12904;50.088;11.414;2023-12-22T07:23:23;4.20;99.90
24814;DHT22;12904;50.088;11.414;2023-12-22T07:25:48;4.20;99.90
24814;DHT22;12904;50.088;11.414;2023-12-22T07:28:14;4.20;99.90
24814;DHT22;12904;50.088;11.414;2023-12-22T07:30:41;4.10;99.90
24814;DHT22;12904;50.088;11.414;2023-12-22T07:33:06;4.10;99.90
24814;DHT22;12904;50.088;11.414;2023-12-22T07:35:32;4.00;99.90
24814;DHT22;12904;50.088;11.414;2023-12-22T07:37:58;4.00;99.90
24814;DHT22;12904;50.088;11.414;2023-12-22T07:40:23;4.00;99.90
24814;DHT22;12904;50.088;11.414;2023-12-22T07:42:49;4.00;99.90
24814;DHT22;12904;50.088;11.414;2023-12-22T07:45:16;4.00;99.90
24814;DHT22;12904;50.088;11.414;2023-12-22T07:47:41;4.00;99.90
24814;DHT22;12904;50.088;11.414;2023-12-22T07:50:07;4.00;99.90
24814;DHT22;12904;50.088;11.414;2023-12-22T07:52:36;4.00;99.90
24814;DHT22;12904;50.088;11.414;2023-12-22T07:55:08;4.00;99.90
24814;DHT22;12904;50.088;11.414;2023-12-22T07:57:37;4.00;99.90
24814;DHT22;12904;50.088;11.414;2023-12-22T08:00:04;4.10;99.90
24814;DHT22;12904;50.088;11.414;2023-12-22T08:02:30;4.10;99.90
24814;DHT22;12904;50.088;11.414;2023-12-22T08:04:55;4.20;99.90
24814;DHT22;12904;50.088;11.414;2023-12-22T08:07:21;4.30;99.90
24814;DHT22;12904;50.088;11.414;2023-12-22T08:09:47;4.40;99.90
24814;DHT22;12904;50.088;11.414;2023-12-22T08:12:12;4.50;99.90
24814;DHT22;12904;50.088;11.414;2023-12-22T08:14:38;4.50;99.90
24814;DHT22;12904;50.088;11.414;2023-12-22T08:17:04;4.50;99.90
24814;DHT22;12904;50.088;11.414;2023-12-22T08:19:29;4.50;99.90
24814;DHT22;12904;50.088;11.414;2023-12-22T08:21:55;4.50;99.90
24814;DHT22;12904;50.088;11.414;2023-12-22T08:24:21;4.60;99.90
24814;DHT22;12904;50.088;11.414;2023-12-22T08:26:47;4.60;99.90
24814;DHT22;12904;50.088;11.414;2023-12-22T08:29:13;4.60;99.90
24814;DHT22;12904;50.088;11.414;2023-12-22T08:31:39;4.60;99.90
24814;DHT22;12904;50.088;11.414;2023-12-22T08:34:04;4.60;99.90
24814;DHT22;12904;50.088;11.414;2023-12-22T08:36:31;4.60;99.90
24814;DHT22;12904;50.088;11.414;2023-12-22T08:38:57;4.60;99.90
24814;DHT22;12904;50.088;11.414;2023-12-22T08:41:22;4.60;99.90
24814;DHT22;12904;50.088;11.414;2023-12-22T08:43:48;4.60;99.90
24814;DHT22;12904;50.088;11.414;2023-12-22T08:46:14;4.60;99.90
24814;DHT22;12904;50.088;11.414;2023-12-22T08:48:40;4.60;99.90
24814;DHT22;12904;50.088;11.414;2023-12-22T08:51:06;4.60;99.90
24814;DHT22;12904;50.088;11.414;2023-12-22T08:53:33;4.60;99.90
24814;DHT22;12904;50.088;11.414;2023-12-22T08:56:02;4.70;99.90
24814;DHT22;12904;50.088;11.414;2023-12-22T08:58:28;4.70;99.90
24814;DHT22;12904;50.088;11.414;2023-12-22T09:00:54;4.70;99.90
24814;DHT22;12904;50.088;11.414;2023-12-22T09:03:19;4.70;99.90
24814;DHT22;12904;50.088;11.414;2023-12-22T09:05:45;4.80;99.90
24814;DHT22;12904;50.088;11.414;2023-12-22T09:08:12;4.80;99.90
24814;DHT22;12904;50.088;11.414;2023-12-22T09:10:38;4.80;99.90
24814;DHT22;12904;50.088;11.414;2023-12-22T09:13:04;4.80;99.90
24814;DHT22;12904;50.088;11.414;2023-12-22T09:15:29;4.80;99.90
24814;DHT22;12904;50.088;11.414;2023-12-22T09:17:55;4.90;99.90
24814;DHT22;12904;50.088;11.414;2023-12-22T09:20:21;4.90;99.90
24814;DHT22;12904;50.088;11.414;2023-12-22T09:22:47;4.90;99.90
24814;DHT22;12904;50.088;11.414;2023-12-22T09:25:13;4.90;99.90
24814;DHT22;12904;50.088;11.414;2023-12-22T09:27:39;4.90;99.90
24814;DHT22;12904;50.088;11.414;2023-12-22T09:30:05;5.00;99.90
24814;DHT22;12904;50.088;11.414;2023-12-22T09:32:33;5.00;99.90
24814;DHT22;12904;50.088;11.414;2023-12-22T09:35:00;5.10;99.90
24814;DHT22;12904;50.088;11.414;2023-12-22T09:37:26;5.20;99.90
24814;DHT22;12904;50.088;11.414;2023-12-22T09:39:52;5.20;99.90
24814;DHT22;12904;50.088;11.414;2023-12-22T09:42:17;5.30;99.90
24814;DHT22;12904;50.088;11.414;2023-12-22T09:44:45;5.30;99.90
24814;DHT22;12904;50.088;11.414;2023-12-22T09:47:12;5.40;99.90
24814;DHT22;12904;50.088;11.414;2023-12-22T09:49:39;5.40;99.90
24814;DHT22;12904;50.088;11.414;2023-12-22T09:52:06;5.40;99.90
24814;DHT22;12904;50.088;11.414;2023-12-22T09:54:33;5.40;99.90
24814;DHT22;12904;50.088;11.414;2023-12-22T09:57:00;5.40;99.90
24814;DHT22;12904;50.088;11.414;2023-12-22T09:59:27;5.40;99.90
24814;DHT22;12904;50.088;11.414;2023-12-22T10:01:55;5.40;99.90
24814;DHT22;12904;50.088;11.414;2023-12-22T10:04:21;5.50;99.90
24814;DHT22;12904;50.088;11.414;2023-12-22T10:06:48;5.50;99.90
24814;DHT22;12904;50.088;11.414;2023-12-22T10:09:15;5.50;99.90
24814;DHT22;12904;50.088;11.414;2023-12-22T10:11:43;5.50;99.90
24814;DHT22;12904;50.088;11.414;2023-12-22T10:14:10;5.40;99.90
24814;DHT22;12904;50.088;11.414;2023-12-22T10:16:36;5.50;99.90
24814;DHT22;12904;50.088;11.414;2023-12-22T10:19:03;5.50;99.90
24814;DHT22;12904;50.088;11.414;2023-12-22T10:21:29;5.50;99.90
24814;DHT22;12904;50.088;11.414;2023-12-22T10:23:56;5.50;99.90
24814;DHT22;12904;50.088;11.414;2023-12-22T10:26:22;5.50;99.90
24814;DHT22;12904;50.088;11.414;2023-12-22T10:28:48;5.50;99.90
24814;DHT22;12904;50.088;11.414;2023-12-22T10:31:17;5.50;99.90
24814;DHT22;12904;50.088;11.414;2023-12-22T10:33:43;5.50;99.90
24814;DHT22;12904;50.088;11.414;2023-12-22T10:36:10;5.50;99.90
24814;DHT22;12904;50.088;11.414;2023-12-22T10:38:35;5.50;99.90
24814;DHT22;12904;50.088;11.414;2023-12-22T10:41:02;5.40;99.90
24814;DHT22;12904;50.088;11.414;2023-12-22T10:43:28;5.40;99.90
24814;DHT22;12904;50.088;11.414;2023-12-22T10:45:54;5.40;99.90
24814;DHT22;12904;50.088;11.414;2023-12-22T10:48:21;5.40;99.90
24814;DHT22;12904;50.088;11.414;2023-12-22T10:50:48;5.40;99.90
24814;DHT22;12904;50.088;11.414;2023-12-22T10:53:14;5.30;99.90
24814;DHT22;12904;50.088;11.414;2023-12-22T10:55:40;5.20;99.90
24814;DHT22;12904;50.088;11.414;2023-12-22T10:58:06;5.20;99.90
24814;DHT22;12904;50.088;11.414;2023-12-22T11:00:37;5.10;99.90
24814;DHT22;12904;50.088;11.414;2023-12-22T11:03:07;5.10;99.90
24814;DHT22;12904;50.088;11.414;2023-12-22T11:05:36;5.00;99.90
24814;DHT22;12904;50.088;11.414;2023-12-22T11:08:03;5.00;99.90
24814;DHT22;12904;50.088;11.414;2023-12-22T11:10:35;4.90;99.90
24814;DHT22;12904;50.088;11.414;2023-12-22T11:13:02;4.80;99.90
24814;DHT22;12904;50.088;11.414;2023-12-22T11:15:28;4.70;99.90
24814;DHT22;12904;50.088;11.414;2023-12-22T11:17:56;4.60;99.90
24814;DHT22;12904;50.088;11.414;2023-12-22T11:20:24;4.50;99.90
24814;DHT22;12904;50.088;11.414;2023-12-22T11:22:51;4.30;99.90
24814;DHT22;12904;50.088;11.414;2023-12-22T11:25:18;4.20;99.90
24814;DHT22;12904;50.088;11.414;2023-12-22T11:27:44;4.10;99.90
24814;DHT22;12904;50.088;11.414;2023-12-22T11:30:12;4.00;99.90
24814;DHT22;12904;50.088;11.414;2023-12-22T11:32:39;4.00;99.90
24814;DHT22;12904;50.088;11.414;2023-12-22T11:35:05;3.90;99.90
24814;DHT22;12904;50.088;11.414;2023-12-22T11:37:35;3.90;99.90
24814;DHT22;12904;50.088;11.414;2023-12-22T11:40:03;3.90;99.90
24814;DHT22;12904;50.088;11.414;2023-12-22T11:42:31;3.90;99.90
24814;DHT22;12904;50.088;11.414;2023-12-22T11:44:58;3.90;99.90
24814;DHT22;12904;50.088;11.414;2023-12-22T11:47:24;4.00;99.90
24814;DHT22;12904;50.088;11.414;2023-12-22T11:49:51;4.00;99.90
24814;DHT22;12904;50.088;11.414;2023-12-22T11:52:18;4.00;99.90
24814;DHT22;12904;50.088;11.414;2023-12-22T11:54:49;4.00;99.90
24814;DHT22;12904;50.088;11.414;2023-12-22T11:59:53;4.10;99.90
24814;DHT22;12904;50.088;11.414;2023-12-22T12:02:18;4.10;99.90
24814;DHT22;12904;50.088;11.414;2023-12-22T12:04:47;4.20;99.90
24814;DHT22;12904;50.088;11.414;2023-12-22T12:07:50;4.20;99.90
24814;DHT22;12904;50.088;11.414;2023-12-22T12:13:08;3.90;99.90
24814;DHT22;12904;50.088;11.414;2023-12-22T12:15:34;3.70;99.90
24814;DHT22;12904;50.088;11.414;2023-12-22T12:18:00;3.60;99.90
24814;DHT22;12904;50.088;11.414;2023-12-22T12:20:27;3.50;99.90
24814;DHT22;12904;50.088;11.414;2023-12-22T12:22:53;3.50;99.90
24814;DHT22;12904;50.088;11.414;2023-12-22T12:25:28;3.50;99.90
24814;DHT22;12904;50.088;11.414;2023-12-22T12:28:07;3.40;99.90
24814;DHT22;12904;50.088;11.414;2023-12-22T12:30:37;3.40;99.90
24814;DHT22;12904;50.088;11.414;2023-12-22T12:33:07;3.40;99.90
24814;DHT22;12904;50.088;11.414;2023-12-22T12:35:33;3.40;99.90
24814;DHT22;12904;50.088;11.414;2023-12-22T12:38:05;3.40;99.90
24814;DHT22;12904;50.088;11.414;2023-12-22T12:40:32;3.50;99.90
24814;DHT22;12904;50.088;11.414;2023-12-22T12:43:01;3.50;99.90
24814;DHT22;12904;50.088;11.414;2023-12-22T12:45:27;3.50;99.90
24814;DHT22;12904;50.088;11.414;2023-12-22T12:48:00;3.50;99.90
24814;DHT22;12904;50.088;11.414;2023-12-22T12:50:27;3.50;99.90
24814;DHT22;12904;50.088;11.414;2023-12-22T12:52:54;3.60;99.90
24814;DHT22;12904;50.088;11.414;2023-12-22T12:55:21;3.60;99.90
24814;DHT22;12904;50.088;11.414;2023-12-22T12:57:51;3.60;99.90
24814;DHT22;12904;50.088;11.414;2023-12-22T13:00:24;3.60;99.90
24814;DHT22;12904;50.088;11.414;2023-12-22T13:02:50;3.60;99.90
24814;DHT22;12904;50.088;11.414;2023-12-22T13:05:23;3.60;99.90
24814;DHT22;12904;50.088;11.414;2023-12-22T13:07:49;3.60;99.90
24814;DHT22;12904;50.088;11.414;2023-12-22T13:10:24;3.60;99.90
24814;DHT22;12904;50.088;11.414;2023-12-22T13:12:51;3.70;99.90
24814;DHT22;12904;50.088;11.414;2023-12-22T13:15:20;3.70;99.90
24814;DHT22;12904;50.088;11.414;2023-12-22T13:17:46;3.70;99.90
24814;DHT22;12904;50.088;11.414;2023-12-22T13:20:11;3.70;99.90
24814;DHT22;12904;50.088;11.414;2023-12-22T13:22:38;3.70;99.90
24814;DHT22;12904;50.088;11.414;2023-12-22T13:25:04;3.80;99.90
24814;DHT22;12904;50.088;11.414;2023-12-22T13:27:30;3.80;99.90
24814;DHT22;12904;50.088;11.414;2023-12-22T13:29:55;3.80;99.90
24814;DHT22;12904;50.088;11.414;2023-12-22T13:32:22;3.80;99.90
24814;DHT22;12904;50.088;11.414;2023-12-22T13:34:54;3.80;99.90
24814;DHT22;12904;50.088;11.414;2023-12-22T13:37:20;3.80;99.90
24814;DHT22;12904;50.088;11.414;2023-12-22T13:39:47;3.80;99.90
24814;DHT22;12904;50.088;11.414;2023-12-22T13:42:19;3.70;99.90
24814;DHT22;12904;50.088;11.414;2023-12-22T13:44:48;3.70;99.90
24814;DHT22;12904;50.088;11.414;2023-12-22T13:47:15;3.70;99.90
24814;DHT22;12904;50.088;11.414;2023-12-22T13:49:42;3.70;99.90
24814;DHT22;12904;50.088;11.414;2023-12-22T13:52:24;3.70;99.90
24814;DHT22;12904;50.088;11.414;2023-12-22T13:54:49;3.70;99.90
24814;DHT22;12904;50.088;11.414;2023-12-22T13:57:21;3.70;99.90
24814;DHT22;12904;50.088;11.414;2023-12-22T13:59:47;3.70;99.90
24814;DHT22;12904;50.088;11.414;2023-12-22T14:02:13;3.70;99.90
24814;DHT22;12904;50.088;11.414;2023-12-22T14:04:38;3.70;99.90
24814;DHT22;12904;50.088;11.414;2023-12-22T14:07:04;3.70;99.90
24814;DHT22;12904;50.088;11.414;2023-12-22T14:09:29;3.70;99.90
24814;DHT22;12904;50.088;11.414;2023-12-22T14:11:59;3.70;99.90
24814;DHT22;12904;50.088;11.414;2023-12-22T14:14:24;3.70;99.90
24814;DHT22;12904;50.088;11.414;2023-12-22T14:16:50;3.70;99.90
24814;DHT22;12904;50.088;11.414;2023-12-22T14:19:16;3.60;99.90
24814;DHT22;12904;50.088;11.414;2023-12-22T14:21:41;3.60;99.90
24814;DHT22;12904;50.088;11.414;2023-12-22T14:24:07;3.60;99.90
24814;DHT22;12904;50.088;11.414;2023-12-22T14:26:33;3.50;99.90
24814;DHT22;12904;50.088;11.414;2023-12-22T14:28:58;3.50;99.90
24814;DHT22;12904;50.088;11.414;2023-12-22T14:31:24;3.50;99.90
24814;DHT22;12904;50.088;11.414;2023-12-22T14:33:50;3.40;99.90
24814;DHT22;12904;50.088;11.414;2023-12-22T14:36:15;3.50;99.90
24814;DHT22;12904;50.088;11.414;2023-12-22T14:38:42;3.40;99.90
24814;DHT22;12904;50.088;11.414;2023-12-22T14:41:08;3.40;99.90
24814;DHT22;12904;50.088;11.414;2023-12-22T14:43:34;3.40;99.90
24814;DHT22;12904;50.088;11.414;2023-12-22T14:45:59;3.40;99.90
24814;DHT22;12904;50.088;11.414;2023-12-22T14:48:25;3.40;99.90
24814;DHT22;12904;50.088;11.414;2023-12-22T14:50:50;3.40;99.90
24814;DHT22;12904;50.088;11.414;2023-12-22T14:53:16;3.40;99.90
24814;DHT22;12904;50.088;11.414;2023-12-22T14:55:42;3.50;99.90
24814;DHT22;12904;50.088;11.414;2023-12-22T14:58:08;3.50;99.90
24814;DHT22;12904;50.088;11.414;2023-12-22T15:00:35;3.50;99.90
24814;DHT22;12904;50.088;11.414;2023-12-22T15:03:01;3.50;99.90
24814;DHT22;12904;50.088;11.414;2023-12-22T15:05:26;3.50;99.90
24814;DHT22;12904;50.088;11.414;2023-12-22T15:07:55;3.50;99.90
24814;DHT22;12904;50.088;11.414;2023-12-22T15:10:21;3.50;99.90
24814;DHT22;12904;50.088;11.414;2023-12-22T15:12:46;3.60;99.90
24814;DHT22;12904;50.088;11.414;2023-12-22T15:15:13;3.60;99.90
24814;DHT22;12904;50.088;11.414;2023-12-22T15:17:39;3.60;99.90
24814;DHT22;12904;50.088;11.414;2023-12-22T15:20:05;3.60;99.90
24814;DHT22;12904;50.088;11.414;2023-12-22T15:22:31;3.60;99.90
24814;DHT22;12904;50.088;11.414;2023-12-22T15:24:57;3.70;99.90
24814;DHT22;12904;50.088;11.414;2023-12-22T15:27:23;3.70;99.90
24814;DHT22;12904;50.088;11.414;2023-12-22T15:29:49;3.70;99.90
24814;DHT22;12904;50.088;11.414;2023-12-22T15:32:15;3.70;99.90
24814;DHT22;12904;50.088;11.414;2023-12-22T15:34:41;3.70;99.90
24814;DHT22;12904;50.088;11.414;2023-12-22T15:37:08;3.80;99.90
24814;DHT22;12904;50.088;11.414;2023-12-22T15:39:34;3.80;99.90